createdAt,value
2016-09-26T00:00:19.595Z,0
2016-09-26T00:01:19.583Z,0
2016-09-26T00:02:19.932Z,0
2016-09-26T00:03:19.630Z,0
2016-09-26T00:04:19.650Z,0
2016-09-26T00:05:19.675Z,0
2016-09-26T00:06:19.694Z,0
2016-09-26T00:07:19.732Z,0
2016-09-26T00:08:19.755Z,0
2016-09-26T00:09:19.765Z,0
2016-09-26T00:10:19.792Z,0
2016-09-26T00:11:19.806Z,0
2016-09-26T00:12:19.831Z,0
2016-09-26T00:13:19.850Z,0
2016-09-26T00:14:19.871Z,0
2016-09-26T00:15:19.901Z,0
2016-09-26T00:16:19.918Z,0
2016-09-26T00:17:19.950Z,0
2016-09-26T00:18:19.964Z,0
2016-09-26T00:19:19.980Z,0
2016-09-26T00:20:20.014Z,0
2016-09-26T00:21:20.036Z,0
2016-09-26T00:22:20.056Z,0
2016-09-26T00:23:20.088Z,0
2016-09-26T00:24:20.092Z,0
2016-09-26T00:25:20.237Z,0
2016-09-26T00:26:20.571Z,0
2016-09-26T00:27:20.243Z,0
2016-09-26T00:28:20.281Z,0
2016-09-26T00:29:20.300Z,0
2016-09-26T00:30:20.773Z,0
2016-09-26T00:31:20.463Z,0
2016-09-26T00:32:20.470Z,0
2016-09-26T00:33:20.480Z,0
2016-09-26T00:34:20.518Z,0
2016-09-26T00:35:20.545Z,0
2016-09-26T00:36:20.535Z,0
2016-09-26T00:37:20.547Z,0
2016-09-26T00:38:20.589Z,0
2016-09-26T00:39:20.558Z,0
2016-09-26T00:40:20.565Z,0
2016-09-26T00:41:20.574Z,0
2016-09-26T00:42:20.588Z,0
2016-09-26T00:43:20.623Z,0
2016-09-26T00:44:20.592Z,0
2016-09-26T00:45:20.643Z,0
2016-09-26T00:46:20.578Z,0
2016-09-26T00:47:20.595Z,0
2016-09-26T00:48:20.662Z,0
2016-09-26T00:49:20.637Z,0
2016-09-26T00:50:20.658Z,0
2016-09-26T00:51:20.689Z,0
2016-09-26T00:52:20.720Z,0
2016-09-26T00:53:20.718Z,0
2016-09-26T00:54:20.747Z,0
2016-09-26T00:55:20.766Z,0
2016-09-26T00:56:20.794Z,0
2016-09-26T00:57:20.813Z,0
2016-09-26T00:58:20.835Z,0
2016-09-26T00:59:20.853Z,0
2016-09-26T01:00:20.875Z,0
2016-09-26T01:01:20.897Z,0
2016-09-26T01:02:20.923Z,0
2016-09-26T01:03:20.941Z,0
2016-09-26T01:04:20.969Z,0
2016-09-26T01:05:20.984Z,0
2016-09-26T01:06:21.001Z,0
2016-09-26T01:07:21.023Z,0
2016-09-26T01:08:21.063Z,0
2016-09-26T01:09:21.065Z,0
2016-09-26T01:10:21.096Z,0
2016-09-26T01:11:21.110Z,0
2016-09-26T01:12:21.133Z,0
2016-09-26T01:13:21.162Z,0
2016-09-26T01:14:21.183Z,0
2016-09-26T01:15:21.196Z,0
2016-09-26T01:16:21.221Z,0
2016-09-26T01:17:21.238Z,0
2016-09-26T01:18:21.270Z,0
2016-09-26T01:19:21.284Z,0
2016-09-26T01:20:21.305Z,0
2016-09-26T01:21:21.330Z,0
2016-09-26T01:22:21.355Z,0
2016-09-26T01:23:21.367Z,0
2016-09-26T01:24:21.389Z,0
2016-09-26T01:25:21.416Z,0
2016-09-26T01:26:21.437Z,0
2016-09-26T01:27:21.451Z,0
2016-09-26T01:28:21.475Z,0
2016-09-26T01:29:21.498Z,0
2016-09-26T01:30:21.520Z,0
2016-09-26T01:31:21.535Z,0
2016-09-26T01:32:21.560Z,0
2016-09-26T01:33:21.643Z,0
2016-09-26T01:34:21.653Z,0
2016-09-26T01:35:21.661Z,0
2016-09-26T01:36:21.669Z,0
2016-09-26T01:37:21.668Z,0
2016-09-26T01:38:21.978Z,0
2016-09-26T01:39:21.819Z,0
2016-09-26T01:40:21.828Z,0
2016-09-26T01:41:21.864Z,0
2016-09-26T01:42:21.864Z,0
2016-09-26T01:43:22.162Z,0
2016-09-26T01:44:21.880Z,0
2016-09-26T01:45:22.149Z,0
2016-09-26T01:46:21.928Z,0
2016-09-26T01:47:21.936Z,0
2016-09-26T01:48:21.945Z,0
2016-09-26T01:49:21.955Z,0
2016-09-26T01:50:21.964Z,0
2016-09-26T01:51:21.967Z,0
2016-09-26T01:52:21.999Z,0
2016-09-26T01:53:22.007Z,0
2016-09-26T01:54:22.031Z,0
2016-09-26T01:55:22.048Z,0
2016-09-26T01:56:22.073Z,0
2016-09-26T01:57:22.115Z,0
2016-09-26T01:58:22.109Z,0
2016-09-26T01:59:22.137Z,0
2016-09-26T02:00:22.160Z,0
2016-09-26T02:01:22.181Z,0
2016-09-26T02:02:22.199Z,0
2016-09-26T02:03:22.226Z,0
2016-09-26T02:04:22.292Z,0
2016-09-26T02:05:22.339Z,0
2016-09-26T02:06:22.290Z,0
2016-09-26T02:07:22.306Z,0
2016-09-26T02:08:22.331Z,0
2016-09-26T02:09:22.347Z,0
2016-09-26T02:10:22.371Z,0
2016-09-26T02:11:22.396Z,0
2016-09-26T02:12:22.416Z,0
2016-09-26T02:13:22.447Z,0
2016-09-26T02:14:22.461Z,0
2016-09-26T02:15:22.522Z,0
2016-09-26T02:16:22.811Z,0
2016-09-26T02:17:22.519Z,0
2016-09-26T02:18:22.537Z,0
2016-09-26T02:19:22.573Z,0
2016-09-26T02:20:22.586Z,0
2016-09-26T02:21:22.613Z,0
2016-09-26T02:22:22.708Z,0
2016-09-26T02:23:22.652Z,0
2016-09-26T02:24:22.663Z,0
2016-09-26T02:25:22.711Z,0
2016-09-26T02:26:22.713Z,0
2016-09-26T02:27:22.727Z,0
2016-09-26T02:28:23.068Z,0
2016-09-26T02:29:22.776Z,0
2016-09-26T02:30:22.790Z,0
2016-09-26T02:31:22.818Z,0
2016-09-26T02:32:22.833Z,0
2016-09-26T02:33:22.853Z,0
2016-09-26T02:34:22.873Z,0
2016-09-26T02:35:22.903Z,0
2016-09-26T02:36:22.922Z,0
2016-09-26T02:37:22.941Z,0
2016-09-26T02:38:22.958Z,0
2016-09-26T02:39:22.978Z,0
2016-09-26T02:40:23.002Z,0
2016-09-26T02:41:23.023Z,0
2016-09-26T02:42:23.041Z,0
2016-09-26T02:43:23.076Z,0
2016-09-26T02:44:23.092Z,0
2016-09-26T02:45:23.108Z,0
2016-09-26T02:46:23.133Z,0
2016-09-26T02:47:23.157Z,0
2016-09-26T02:48:23.170Z,0
2016-09-26T02:49:23.190Z,0
2016-09-26T02:50:23.211Z,0
2016-09-26T02:51:23.237Z,0
2016-09-26T02:52:23.253Z,0
2016-09-26T02:53:23.277Z,0
2016-09-26T02:54:23.294Z,0
2016-09-26T02:55:23.309Z,0
2016-09-26T02:56:23.345Z,0
2016-09-26T02:57:23.840Z,0
2016-09-26T02:58:23.396Z,0
2016-09-26T02:59:23.400Z,0
2016-09-26T03:00:23.868Z,0
2016-09-26T03:01:23.438Z,0
2016-09-26T03:02:23.462Z,0
2016-09-26T03:03:23.478Z,0
2016-09-26T03:04:23.616Z,0
2016-09-26T03:05:23.612Z,0
2016-09-26T03:06:23.638Z,0
2016-09-26T03:07:23.802Z,0
2016-09-26T03:08:23.811Z,0
2016-09-26T03:09:23.822Z,0
2016-09-26T03:10:23.838Z,0
2016-09-26T03:11:23.845Z,0
2016-09-26T03:12:23.847Z,0
2016-09-26T03:13:23.852Z,0
2016-09-26T03:14:23.861Z,0
2016-09-26T03:15:23.913Z,0
2016-09-26T03:16:23.911Z,0
2016-09-26T03:17:23.918Z,0
2016-09-26T03:18:23.929Z,0
2016-09-26T03:19:23.935Z,0
2016-09-26T03:20:23.984Z,0
2016-09-26T03:21:23.983Z,0
2016-09-26T03:22:23.952Z,0
2016-09-26T03:23:24.001Z,0
2016-09-26T03:24:23.957Z,0
2016-09-26T03:25:24.019Z,0
2016-09-26T03:26:24.042Z,0
2016-09-26T03:27:23.983Z,0
2016-09-26T03:28:24.037Z,0
2016-09-26T03:29:24.040Z,0
2016-09-26T03:30:24.358Z,0
2016-09-26T03:31:24.065Z,0
2016-09-26T03:32:24.097Z,0
2016-09-26T03:33:24.436Z,0
2016-09-26T03:34:24.128Z,0
2016-09-26T03:35:24.149Z,0
2016-09-26T03:36:24.177Z,0
2016-09-26T03:37:24.193Z,0
2016-09-26T03:38:24.214Z,0
2016-09-26T03:39:24.230Z,0
2016-09-26T03:40:24.256Z,0
2016-09-26T03:41:24.275Z,0
2016-09-26T03:42:24.292Z,0
2016-09-26T03:43:24.316Z,0
2016-09-26T03:44:24.337Z,0
2016-09-26T03:45:24.355Z,0
2016-09-26T03:46:24.383Z,0
2016-09-26T03:47:24.716Z,0
2016-09-26T03:48:24.417Z,0
2016-09-26T03:49:24.749Z,0
2016-09-26T03:50:24.470Z,0
2016-09-26T03:51:24.800Z,0
2016-09-26T03:52:24.499Z,0
2016-09-26T03:53:24.839Z,0
2016-09-26T03:54:24.541Z,0
2016-09-26T03:55:24.566Z,0
2016-09-26T03:56:24.587Z,0
2016-09-26T03:57:24.604Z,0
2016-09-26T03:58:24.626Z,0
2016-09-26T03:59:24.647Z,0
2016-09-26T04:00:24.665Z,0
2016-09-26T04:01:25.006Z,0
2016-09-26T04:02:24.707Z,0
2016-09-26T04:03:24.737Z,0
2016-09-26T04:04:24.744Z,0
2016-09-26T04:05:24.771Z,0
2016-09-26T04:06:25.102Z,0
2016-09-26T04:07:24.813Z,0
2016-09-26T04:08:24.832Z,0
2016-09-26T04:09:24.846Z,0
2016-09-26T04:10:25.209Z,0
2016-09-26T04:11:24.900Z,0
2016-09-26T04:12:24.908Z,0
2016-09-26T04:13:24.941Z,0
2016-09-26T04:14:24.950Z,0
2016-09-26T04:15:24.974Z,0
2016-09-26T04:16:24.994Z,0
2016-09-26T04:17:25.011Z,0
2016-09-26T04:18:25.353Z,0
2016-09-26T04:19:25.066Z,0
2016-09-26T04:20:25.085Z,0
2016-09-26T04:21:25.100Z,0
2016-09-26T04:22:25.117Z,0
2016-09-26T04:23:25.140Z,0
2016-09-26T04:24:25.490Z,0
2016-09-26T04:25:25.192Z,0
2016-09-26T04:26:25.198Z,0
2016-09-26T04:27:25.218Z,0
2016-09-26T04:28:25.245Z,0
2016-09-26T04:29:25.261Z,0
2016-09-26T04:30:25.288Z,0
2016-09-26T04:31:25.307Z,0
2016-09-26T04:32:25.325Z,0
2016-09-26T04:33:25.345Z,0
2016-09-26T04:34:25.373Z,0
2016-09-26T04:35:25.380Z,0
2016-09-26T04:36:25.718Z,0
2016-09-26T04:37:25.846Z,0
2016-09-26T04:38:25.445Z,0
2016-09-26T04:39:26.181Z,0
2016-09-26T04:40:25.482Z,0
2016-09-26T04:41:25.524Z,0
2016-09-26T04:42:25.651Z,0
2016-09-26T04:43:25.634Z,0
2016-09-26T04:44:25.799Z,0
2016-09-26T04:45:25.794Z,0
2016-09-26T04:46:26.331Z,0
2016-09-26T04:47:25.819Z,0
2016-09-26T04:48:25.829Z,0
2016-09-26T04:49:25.837Z,0
2016-09-26T04:50:25.847Z,0
2016-09-26T04:51:26.162Z,0
2016-09-26T04:52:25.853Z,0
2016-09-26T04:53:25.861Z,0
2016-09-26T04:54:26.102Z,0
2016-09-26T04:55:26.191Z,0
2016-09-26T04:56:25.920Z,0
2016-09-26T04:57:25.927Z,0
2016-09-26T04:58:25.935Z,0
2016-09-26T04:59:25.944Z,0
2016-09-26T05:00:25.983Z,0
2016-09-26T05:01:25.990Z,0
2016-09-26T05:02:26.001Z,0
2016-09-26T05:03:26.037Z,0
2016-09-26T05:04:26.046Z,0
2016-09-26T05:05:26.043Z,0
2016-09-26T05:06:26.054Z,0
2016-09-26T05:07:26.060Z,0
2016-09-26T05:08:26.072Z,0
2016-09-26T05:09:26.069Z,0
2016-09-26T05:10:26.096Z,0
2016-09-26T05:11:26.113Z,0
2016-09-26T05:12:26.135Z,0
2016-09-26T05:13:26.162Z,0
2016-09-26T05:14:26.177Z,0
2016-09-26T05:15:26.200Z,0
2016-09-26T05:16:26.227Z,0
2016-09-26T05:17:26.238Z,0
2016-09-26T05:18:26.990Z,0
2016-09-26T05:19:26.281Z,0
2016-09-26T05:20:26.388Z,0
2016-09-26T05:21:26.320Z,0
2016-09-26T05:22:26.351Z,0
2016-09-26T05:23:26.361Z,0
2016-09-26T05:24:26.396Z,0
2016-09-26T05:25:26.398Z,0
2016-09-26T05:26:26.413Z,0
2016-09-26T05:27:26.439Z,0
2016-09-26T05:28:26.570Z,0
2016-09-26T05:29:26.970Z,0
2016-09-26T05:30:26.587Z,0
2016-09-26T05:31:26.728Z,0
2016-09-26T05:32:26.741Z,0
2016-09-26T05:33:26.754Z,0
2016-09-26T05:34:26.764Z,0
2016-09-26T05:35:26.768Z,0
2016-09-26T05:36:26.769Z,0
2016-09-26T05:37:26.781Z,0
2016-09-26T05:38:26.790Z,0
2016-09-26T05:39:26.798Z,0
2016-09-26T05:40:26.795Z,0
2016-09-26T05:41:26.833Z,0
2016-09-26T05:42:26.946Z,5
2016-09-26T05:43:26.865Z,5
2016-09-26T05:44:26.858Z,5
2016-09-26T05:45:26.867Z,5
2016-09-26T05:46:26.921Z,5
2016-09-26T05:47:26.928Z,5
2016-09-26T05:48:26.930Z,5
2016-09-26T05:49:26.958Z,5
2016-09-26T05:50:26.967Z,5
2016-09-26T05:51:26.972Z,5
2016-09-26T05:52:26.985Z,5
2016-09-26T05:53:26.998Z,5
2016-09-26T05:54:26.993Z,5
2016-09-26T05:55:27.000Z,5
2016-09-26T05:56:27.028Z,5
2016-09-26T05:57:27.044Z,5
2016-09-26T05:58:27.069Z,5
2016-09-26T05:59:27.086Z,5
2016-09-26T06:00:27.104Z,5
2016-09-26T06:01:27.118Z,5
2016-09-26T06:02:27.151Z,5
2016-09-26T06:03:27.167Z,5
2016-09-26T06:04:27.178Z,5
2016-09-26T06:05:27.221Z,5
2016-09-26T06:06:27.225Z,5
2016-09-26T06:07:27.247Z,5
2016-09-26T06:08:27.268Z,5
2016-09-26T06:09:27.280Z,5
2016-09-26T06:10:27.311Z,5
2016-09-26T06:11:27.325Z,5
2016-09-26T06:12:27.343Z,5
2016-09-26T06:13:27.363Z,10
2016-09-26T06:14:27.396Z,10
2016-09-26T06:15:27.401Z,10
2016-09-26T06:16:27.429Z,10
2016-09-26T06:17:27.454Z,10
2016-09-26T06:18:27.472Z,10
2016-09-26T06:19:27.486Z,10
2016-09-26T06:20:27.507Z,10
2016-09-26T06:21:27.536Z,10
2016-09-26T06:22:27.552Z,10
2016-09-26T06:23:27.568Z,10
2016-09-26T06:24:27.586Z,10
2016-09-26T06:25:27.613Z,10
2016-09-26T06:26:27.630Z,10
2016-09-26T06:27:27.662Z,10
2016-09-26T06:28:27.672Z,5
2016-09-26T06:29:27.694Z,10
2016-09-26T06:30:27.709Z,5
2016-09-26T06:31:27.729Z,5
2016-09-26T06:32:27.753Z,5
2016-09-26T06:33:27.777Z,5
2016-09-26T06:34:27.791Z,5
2016-09-26T06:35:27.832Z,5
2016-09-26T06:36:27.853Z,5
2016-09-26T06:37:27.856Z,5
2016-09-26T06:38:27.873Z,5
2016-09-26T06:39:27.898Z,5
2016-09-26T06:40:27.911Z,5
2016-09-26T06:41:27.938Z,5
2016-09-26T06:42:27.962Z,5
2016-09-26T06:43:27.977Z,5
2016-09-26T06:44:27.995Z,5
2016-09-26T06:45:28.030Z,10
2016-09-26T06:46:28.035Z,5
2016-09-26T06:47:28.058Z,10
2016-09-26T06:48:28.088Z,5
2016-09-26T06:49:28.095Z,5
2016-09-26T06:50:28.113Z,5
2016-09-26T06:51:28.139Z,5
2016-09-26T06:52:28.159Z,5
2016-09-26T06:53:28.179Z,5
2016-09-26T06:54:28.205Z,5
2016-09-26T06:55:28.220Z,5
2016-09-26T06:56:28.244Z,5
2016-09-26T06:57:28.257Z,5
2016-09-26T06:58:28.288Z,5
2016-09-26T06:59:28.304Z,5
2016-09-26T07:00:28.320Z,5
2016-09-26T07:01:28.336Z,5
2016-09-26T07:02:28.365Z,5
2016-09-26T07:03:28.384Z,5
2016-09-26T07:04:28.402Z,5
2016-09-26T07:05:28.422Z,5
2016-09-26T07:06:28.763Z,5
2016-09-26T07:07:28.467Z,5
2016-09-26T07:08:28.602Z,5
2016-09-26T07:09:28.620Z,5
2016-09-26T07:10:28.938Z,5
2016-09-26T07:11:28.639Z,5
2016-09-26T07:12:28.758Z,5
2016-09-26T07:13:28.772Z,5
2016-09-26T07:14:28.785Z,5
2016-09-26T07:15:28.785Z,5
2016-09-26T07:16:29.005Z,5
2016-09-26T07:17:28.803Z,5
2016-09-26T07:18:28.942Z,5
2016-09-26T07:19:28.816Z,5
2016-09-26T07:20:28.945Z,5
2016-09-26T07:21:28.956Z,5
2016-09-26T07:22:28.975Z,5
2016-09-26T07:23:29.041Z,5
2016-09-26T07:24:28.974Z,5
2016-09-26T07:25:28.924Z,5
2016-09-26T07:26:28.929Z,5
2016-09-26T07:27:28.949Z,5
2016-09-26T07:28:29.294Z,5
2016-09-26T07:29:28.983Z,5
2016-09-26T07:30:29.009Z,5
2016-09-26T07:31:28.995Z,5
2016-09-26T07:32:29.004Z,5
2016-09-26T07:33:29.054Z,5
2016-09-26T07:34:29.031Z,5
2016-09-26T07:35:29.039Z,5
2016-09-26T07:36:29.064Z,10
2016-09-26T07:37:29.094Z,5
2016-09-26T07:38:29.105Z,5
2016-09-26T07:39:29.127Z,5
2016-09-26T07:40:29.147Z,5
2016-09-26T07:41:29.159Z,5
2016-09-26T07:42:29.185Z,10
2016-09-26T07:43:29.204Z,10
2016-09-26T07:44:29.235Z,10
2016-09-26T07:45:29.254Z,10
2016-09-26T07:46:29.277Z,10
2016-09-26T07:47:29.295Z,10
2016-09-26T07:48:29.322Z,10
2016-09-26T07:49:29.334Z,10
2016-09-26T07:50:29.361Z,10
2016-09-26T07:51:29.384Z,15
2016-09-26T07:52:29.388Z,10
2016-09-26T07:53:29.426Z,10
2016-09-26T07:54:29.434Z,10
2016-09-26T07:55:29.451Z,15
2016-09-26T07:56:29.477Z,15
2016-09-26T07:57:29.500Z,10
2016-09-26T07:58:29.511Z,15
2016-09-26T07:59:29.541Z,10
2016-09-26T08:00:29.561Z,10
2016-09-26T08:01:29.582Z,10
2016-09-26T08:02:29.602Z,10
2016-09-26T08:03:29.620Z,10
2016-09-26T08:04:29.648Z,10
2016-09-26T08:05:29.662Z,10
2016-09-26T08:06:29.683Z,10
2016-09-26T08:07:29.711Z,10
2016-09-26T08:08:29.730Z,10
2016-09-26T08:09:29.744Z,15
2016-09-26T08:10:29.765Z,20
2016-09-26T08:11:29.785Z,20
2016-09-26T08:12:29.808Z,20
2016-09-26T08:13:29.828Z,20
2016-09-26T08:14:29.856Z,15
2016-09-26T08:15:29.876Z,15
2016-09-26T08:16:29.895Z,15
2016-09-26T08:17:29.917Z,15
2016-09-26T08:18:29.947Z,15
2016-09-26T08:19:29.963Z,10
2016-09-26T08:20:29.976Z,10
2016-09-26T08:21:30.008Z,10
2016-09-26T08:22:30.033Z,10
2016-09-26T08:23:30.044Z,15
2016-09-26T08:24:30.078Z,15
2016-09-26T08:25:30.091Z,15
2016-09-26T08:26:30.101Z,10
2016-09-26T08:27:30.126Z,10
2016-09-26T08:28:30.145Z,10
2016-09-26T08:29:30.164Z,10
2016-09-26T08:30:30.187Z,10
2016-09-26T08:31:30.215Z,10
2016-09-26T08:32:30.231Z,10
2016-09-26T08:33:30.269Z,15
2016-09-26T08:34:30.279Z,15
2016-09-26T08:35:30.297Z,15
2016-09-26T08:36:30.327Z,15
2016-09-26T08:37:30.337Z,15
2016-09-26T08:38:30.683Z,15
2016-09-26T08:39:30.748Z,15
2016-09-26T08:40:30.405Z,15
2016-09-26T08:41:30.426Z,15
2016-09-26T08:42:30.443Z,15
2016-09-26T08:43:30.483Z,20
2016-09-26T08:44:30.493Z,20
2016-09-26T08:45:30.508Z,15
2016-09-26T08:46:30.644Z,25
2016-09-26T08:47:30.640Z,25
2016-09-26T08:48:30.577Z,25
2016-09-26T08:49:30.591Z,20
2016-09-26T08:50:30.614Z,25
2016-09-26T08:51:30.637Z,20
2016-09-26T08:52:30.660Z,20
2016-09-26T08:53:30.676Z,25
2016-09-26T08:54:30.704Z,25
2016-09-26T08:55:30.725Z,25
2016-09-26T08:56:30.751Z,25
2016-09-26T08:57:30.778Z,30
2016-09-26T08:58:30.784Z,25
2016-09-26T08:59:30.815Z,30
2016-09-26T09:00:30.829Z,30
2016-09-26T09:01:30.942Z,25
2016-09-26T09:02:30.875Z,25
2016-09-26T09:03:30.896Z,30
2016-09-26T09:04:30.923Z,25
2016-09-26T09:05:30.949Z,20
2016-09-26T09:06:30.968Z,20
2016-09-26T09:07:31.497Z,20
2016-09-26T09:08:31.018Z,20
2016-09-26T09:09:31.025Z,20
2016-09-26T09:10:31.052Z,20
2016-09-26T09:11:31.092Z,20
2016-09-26T09:12:31.091Z,25
2016-09-26T09:13:31.335Z,25
2016-09-26T09:14:31.255Z,25
2016-09-26T09:15:31.161Z,25
2016-09-26T09:16:31.182Z,20
2016-09-26T09:17:31.206Z,20
2016-09-26T09:18:31.239Z,20
2016-09-26T09:19:31.471Z,20
2016-09-26T09:20:31.394Z,25
2016-09-26T09:21:31.496Z,25
2016-09-26T09:22:31.412Z,20
2016-09-26T09:23:31.543Z,20
2016-09-26T09:24:31.458Z,25
2016-09-26T09:25:31.389Z,30
2016-09-26T09:26:31.404Z,30
2016-09-26T09:27:31.461Z,35
2016-09-26T09:28:31.457Z,30
2016-09-26T09:29:31.596Z,30
2016-09-26T09:30:31.504Z,30
2016-09-26T09:31:31.602Z,30
2016-09-26T09:32:31.610Z,25
2016-09-26T09:33:31.565Z,20
2016-09-26T09:34:31.588Z,20
2016-09-26T09:35:31.607Z,20
2016-09-26T09:36:31.797Z,20
2016-09-26T09:37:31.798Z,20
2016-09-26T09:38:31.690Z,20
2016-09-26T09:39:31.711Z,20
2016-09-26T09:40:31.832Z,20
2016-09-26T09:41:31.746Z,20
2016-09-26T09:42:31.773Z,20
2016-09-26T09:43:31.792Z,25
2016-09-26T09:44:31.815Z,25
2016-09-26T09:45:31.845Z,25
2016-09-26T09:46:31.872Z,25
2016-09-26T09:47:31.991Z,20
2016-09-26T09:48:31.914Z,20
2016-09-26T09:49:31.993Z,20
2016-09-26T09:50:32.129Z,20
2016-09-26T09:51:32.090Z,20
2016-09-26T09:52:31.997Z,20
2016-09-26T09:53:32.152Z,20
2016-09-26T09:54:32.059Z,20
2016-09-26T09:55:32.067Z,20
2016-09-26T09:56:32.095Z,20
2016-09-26T09:57:32.115Z,20
2016-09-26T09:58:32.137Z,20
2016-09-26T09:59:32.274Z,25
2016-09-26T10:00:32.200Z,25
2016-09-26T10:01:32.262Z,20
2016-09-26T10:02:32.228Z,20
2016-09-26T10:03:32.253Z,20
2016-09-26T10:04:32.273Z,20
2016-09-26T10:05:32.419Z,20
2016-09-26T10:06:32.422Z,20
2016-09-26T10:07:32.464Z,25
2016-09-26T10:08:32.370Z,25
2016-09-26T10:09:32.462Z,25
2016-09-26T10:10:32.422Z,25
2016-09-26T10:11:32.573Z,25
2016-09-26T10:12:32.561Z,25
2016-09-26T10:13:32.499Z,25
2016-09-26T10:14:32.620Z,25
2016-09-26T10:15:32.721Z,25
2016-09-26T10:16:32.629Z,25
2016-09-26T10:17:32.669Z,25
2016-09-26T10:18:32.602Z,20
2016-09-26T10:19:32.626Z,25
2016-09-26T10:20:32.663Z,25
2016-09-26T10:21:32.675Z,25
2016-09-26T10:22:32.697Z,20
2016-09-26T10:23:32.727Z,20
2016-09-26T10:24:32.882Z,20
2016-09-26T10:25:32.771Z,25
2016-09-26T10:26:32.801Z,25
2016-09-26T10:27:32.816Z,25
2016-09-26T10:28:32.848Z,25
2016-09-26T10:29:32.863Z,30
2016-09-26T10:30:32.888Z,30
2016-09-26T10:31:33.027Z,35
2016-09-26T10:32:33.037Z,40
2016-09-26T10:33:32.958Z,40
2016-09-26T10:34:33.045Z,35
2016-09-26T10:35:33.013Z,35
2016-09-26T10:36:33.031Z,35
2016-09-26T10:37:33.066Z,30
2016-09-26T10:38:33.199Z,30
2016-09-26T10:39:33.420Z,30
2016-09-26T10:40:33.138Z,30
2016-09-26T10:41:33.475Z,30
2016-09-26T10:42:33.294Z,25
2016-09-26T10:43:33.300Z,25
2016-09-26T10:44:33.441Z,25
2016-09-26T10:45:33.263Z,25
2016-09-26T10:46:33.283Z,25
2016-09-26T10:47:33.298Z,30
2016-09-26T10:48:33.348Z,30
2016-09-26T10:49:33.528Z,35
2016-09-26T10:50:33.377Z,40
2016-09-26T10:51:33.580Z,40
2016-09-26T10:52:33.599Z,40
2016-09-26T10:53:33.472Z,40
2016-09-26T10:54:33.484Z,40
2016-09-26T10:55:33.505Z,40
2016-09-26T10:56:33.526Z,40
2016-09-26T10:57:33.561Z,40
2016-09-26T10:58:33.598Z,40
2016-09-26T10:59:33.599Z,35
2016-09-26T11:00:33.623Z,40
2016-09-26T11:01:33.847Z,40
2016-09-26T11:02:33.674Z,35
2016-09-26T11:03:33.712Z,35
2016-09-26T11:04:33.731Z,35
2016-09-26T11:05:33.865Z,35
2016-09-26T11:06:33.897Z,40
2016-09-26T11:07:33.801Z,40
2016-09-26T11:08:33.897Z,40
2016-09-26T11:09:33.981Z,35
2016-09-26T11:10:33.878Z,40
2016-09-26T11:11:33.908Z,45
2016-09-26T11:12:33.923Z,40
2016-09-26T11:13:33.954Z,40
2016-09-26T11:14:33.982Z,40
2016-09-26T11:15:33.999Z,40
2016-09-26T11:16:34.139Z,40
2016-09-26T11:17:34.174Z,40
2016-09-26T11:18:34.092Z,40
2016-09-26T11:19:34.108Z,40
2016-09-26T11:20:34.137Z,45
2016-09-26T11:21:34.255Z,45
2016-09-26T11:22:34.186Z,40
2016-09-26T11:23:34.211Z,35
2016-09-26T11:24:34.235Z,35
2016-09-26T11:25:34.261Z,35
2016-09-26T11:26:34.283Z,35
2016-09-26T11:27:34.323Z,30
2016-09-26T11:28:34.453Z,30
2016-09-26T11:29:34.453Z,30
2016-09-26T11:30:34.627Z,25
2016-09-26T11:31:34.634Z,25
2016-09-26T11:32:34.540Z,25
2016-09-26T11:33:34.546Z,25
2016-09-26T11:34:34.559Z,25
2016-09-26T11:35:34.522Z,25
2016-09-26T11:36:34.550Z,25
2016-09-26T11:37:34.571Z,25
2016-09-26T11:38:34.603Z,30
2016-09-26T11:39:34.631Z,25
2016-09-26T11:40:34.716Z,25
2016-09-26T11:41:34.685Z,30
2016-09-26T11:42:34.704Z,30
2016-09-26T11:43:34.736Z,25
2016-09-26T11:44:34.764Z,25
2016-09-26T11:45:34.782Z,25
2016-09-26T11:46:34.820Z,25
2016-09-26T11:47:34.951Z,25
2016-09-26T11:48:34.869Z,25
2016-09-26T11:49:34.902Z,25
2016-09-26T11:50:35.108Z,30
2016-09-26T11:51:34.946Z,30
2016-09-26T11:52:34.972Z,30
2016-09-26T11:53:34.997Z,30
2016-09-26T11:54:35.018Z,25
2016-09-26T11:55:35.052Z,25
2016-09-26T11:56:35.085Z,25
2016-09-26T11:57:35.117Z,25
2016-09-26T11:58:35.137Z,30
2016-09-26T11:59:35.248Z,30
2016-09-26T12:00:35.302Z,30
2016-09-26T12:01:35.254Z,30
2016-09-26T12:02:35.260Z,30
2016-09-26T12:03:35.383Z,30
2016-09-26T12:04:35.300Z,30
2016-09-26T12:05:35.327Z,35
2016-09-26T12:06:35.349Z,40
2016-09-26T12:07:35.393Z,40
2016-09-26T12:08:35.416Z,40
2016-09-26T12:09:35.438Z,40
2016-09-26T12:10:35.452Z,40
2016-09-26T12:11:35.497Z,40
2016-09-26T12:12:35.830Z,40
2016-09-26T12:13:35.539Z,40
2016-09-26T12:14:35.642Z,40
2016-09-26T12:15:35.594Z,40
2016-09-26T12:16:35.614Z,45
2016-09-26T12:17:35.755Z,45
2016-09-26T12:18:35.759Z,45
2016-09-26T12:19:35.785Z,45
2016-09-26T12:20:35.738Z,45
2016-09-26T12:21:35.753Z,45
2016-09-26T12:22:35.788Z,45
2016-09-26T12:23:35.827Z,50
2016-09-26T12:24:35.949Z,45
2016-09-26T12:25:35.864Z,40
2016-09-26T12:26:35.890Z,35
2016-09-26T12:27:36.033Z,35
2016-09-26T12:28:35.955Z,35
2016-09-26T12:29:35.978Z,35
2016-09-26T12:30:36.025Z,35
2016-09-26T12:31:36.038Z,30
2016-09-26T12:32:36.061Z,25
2016-09-26T12:33:36.088Z,25
2016-09-26T12:34:36.116Z,20
2016-09-26T12:35:36.207Z,20
2016-09-26T12:36:36.173Z,20
2016-09-26T12:37:36.195Z,15
2016-09-26T12:38:36.223Z,15
2016-09-26T12:39:36.369Z,15
2016-09-26T12:40:36.397Z,15
2016-09-26T12:41:36.309Z,20
2016-09-26T12:42:36.337Z,20
2016-09-26T12:43:36.362Z,20
2016-09-26T12:44:36.390Z,20
2016-09-26T12:45:36.416Z,20
2016-09-26T12:46:36.441Z,20
2016-09-26T12:47:36.477Z,20
2016-09-26T12:48:36.500Z,20
2016-09-26T12:49:36.529Z,20
2016-09-26T12:50:36.557Z,15
2016-09-26T12:51:36.581Z,15
2016-09-26T12:52:36.615Z,20
2016-09-26T12:53:36.651Z,20
2016-09-26T12:54:36.664Z,20
2016-09-26T12:55:36.699Z,20
2016-09-26T12:56:36.723Z,25
2016-09-26T12:57:36.760Z,30
2016-09-26T12:58:36.785Z,25
2016-09-26T12:59:36.807Z,25
2016-09-26T13:00:36.854Z,25
2016-09-26T13:01:36.866Z,20
2016-09-26T13:02:36.888Z,25
2016-09-26T13:03:36.921Z,25
2016-09-26T13:04:36.954Z,30
2016-09-26T13:05:36.974Z,35
2016-09-26T13:06:37.010Z,35
2016-09-26T13:07:37.030Z,35
2016-09-26T13:08:37.064Z,30
2016-09-26T13:09:37.182Z,30
2016-09-26T13:10:37.111Z,35
2016-09-26T13:11:37.279Z,35
2016-09-26T13:12:37.277Z,35
2016-09-26T13:13:37.286Z,35
2016-09-26T13:14:37.223Z,35
2016-09-26T13:15:37.318Z,35
2016-09-26T13:16:37.284Z,30
2016-09-26T13:17:37.515Z,30
2016-09-26T13:18:37.651Z,30
2016-09-26T13:19:37.364Z,30
2016-09-26T13:20:37.394Z,30
2016-09-26T13:21:37.415Z,30
2016-09-26T13:22:37.844Z,30
2016-09-26T13:23:37.566Z,30
2016-09-26T13:24:37.506Z,30
2016-09-26T13:25:37.561Z,30
2016-09-26T13:26:37.567Z,30
2016-09-26T13:27:37.589Z,30
2016-09-26T13:28:37.935Z,30
2016-09-26T13:29:37.642Z,30
2016-09-26T13:30:37.683Z,30
2016-09-26T13:31:37.702Z,35
2016-09-26T13:32:37.851Z,35
2016-09-26T13:33:37.758Z,35
2016-09-26T13:34:37.784Z,40
2016-09-26T13:35:37.927Z,40
2016-09-26T13:36:37.840Z,40
2016-09-26T13:37:37.868Z,40
2016-09-26T13:38:37.897Z,40
2016-09-26T13:39:37.927Z,40
2016-09-26T13:40:37.951Z,40
2016-09-26T13:41:37.986Z,40
2016-09-26T13:42:38.009Z,40
2016-09-26T13:43:38.037Z,40
2016-09-26T13:44:38.074Z,40
2016-09-26T13:45:38.319Z,40
2016-09-26T13:46:38.327Z,40
2016-09-26T13:47:38.150Z,40
2016-09-26T13:48:38.377Z,40
2016-09-26T13:49:38.265Z,40
2016-09-26T13:50:38.274Z,40
2016-09-26T13:51:38.256Z,40
2016-09-26T13:52:38.290Z,40
2016-09-26T13:53:38.319Z,40
2016-09-26T13:54:38.397Z,40
2016-09-26T13:55:38.375Z,40
2016-09-26T13:56:38.395Z,40
2016-09-26T13:57:38.423Z,35
2016-09-26T13:58:38.460Z,35
2016-09-26T13:59:38.484Z,35
2016-09-26T14:00:38.514Z,35
2016-09-26T14:01:38.541Z,35
2016-09-26T14:02:38.575Z,30
2016-09-26T14:03:38.669Z,30
2016-09-26T14:04:38.625Z,30
2016-09-26T14:05:38.648Z,30
2016-09-26T14:06:38.682Z,30
2016-09-26T14:07:38.800Z,30
2016-09-26T14:08:38.738Z,25
2016-09-26T14:09:38.774Z,25
2016-09-26T14:10:38.794Z,30
2016-09-26T14:11:38.825Z,30
2016-09-26T14:12:38.847Z,25
2016-09-26T14:13:39.195Z,25
2016-09-26T14:14:38.907Z,25
2016-09-26T14:15:38.934Z,30
2016-09-26T14:16:38.962Z,30
2016-09-26T14:17:38.992Z,30
2016-09-26T14:18:39.019Z,30
2016-09-26T14:19:39.051Z,25
2016-09-26T14:20:39.080Z,25
2016-09-26T14:21:39.106Z,25
2016-09-26T14:22:39.149Z,25
2016-09-26T14:23:39.159Z,30
2016-09-26T14:24:39.195Z,30
2016-09-26T14:25:39.226Z,30
2016-09-26T14:26:39.246Z,30
2016-09-26T14:27:39.277Z,30
2016-09-26T14:28:39.303Z,30
2016-09-26T14:29:39.325Z,30
2016-09-26T14:30:39.366Z,30
2016-09-26T14:31:39.388Z,30